sensor_id;sensor_type;location;lat;lon;timestamp;P1;durP1;ratioP1;P2;durP2;ratioP2
66169;SDS011;66757;44.024;20.456;2023-05-19T00:00:01;10.35;;;6.30;;
66169;SDS011;66757;44.024;20.456;2023-05-19T00:02:28;8.45;;;6.85;;
66169;SDS011;66757;44.024;20.456;2023-05-19T00:04:59;8.98;;;5.70;;
66169;SDS011;66757;44.024;20.456;2023-05-19T00:07:27;6.82;;;5.97;;
66169;SDS011;66757;44.024;20.456;2023-05-19T00:09:55;7.40;;;5.88;;
66169;SDS011;66757;44.024;20.456;2023-05-19T00:12:21;6.63;;;5.68;;
66169;SDS011;66757;44.024;20.456;2023-05-19T00:14:47;6.45;;;5.85;;
66169;SDS011;66757;44.024;20.456;2023-05-19T00:17:12;6.57;;;5.72;;
66169;SDS011;66757;44.024;20.456;2023-05-19T00:19:41;8.75;;;6.50;;
66169;SDS011;66757;44.024;20.456;2023-05-19T00:22:09;7.00;;;6.13;;
66169;SDS011;66757;44.024;20.456;2023-05-19T00:24:35;7.32;;;6.15;;
66169;SDS011;66757;44.024;20.456;2023-05-19T00:27:00;6.88;;;6.18;;
66169;SDS011;66757;44.024;20.456;2023-05-19T00:29:25;6.50;;;5.90;;
66169;SDS011;66757;44.024;20.456;2023-05-19T00:31:52;6.22;;;5.63;;
66169;SDS011;66757;44.024;20.456;2023-05-19T00:34:17;8.05;;;6.10;;
66169;SDS011;66757;44.024;20.456;2023-05-19T00:36:43;6.45;;;5.80;;
66169;SDS011;66757;44.024;20.456;2023-05-19T00:39:08;6.57;;;5.95;;
66169;SDS011;66757;44.024;20.456;2023-05-19T00:41:34;8.38;;;5.90;;
66169;SDS011;66757;44.024;20.456;2023-05-19T00:44:00;10.00;;;6.28;;
66169;SDS011;66757;44.024;20.456;2023-05-19T00:46:25;6.28;;;5.20;;
66169;SDS011;66757;44.024;20.456;2023-05-19T00:48:51;7.45;;;5.93;;
66169;SDS011;66757;44.024;20.456;2023-05-19T00:51:17;6.88;;;5.90;;
66169;SDS011;66757;44.024;20.456;2023-05-19T00:53:42;9.73;;;6.10;;
66169;SDS011;66757;44.024;20.456;2023-05-19T00:56:14;6.80;;;6.13;;
66169;SDS011;66757;44.024;20.456;2023-05-19T00:58:40;6.43;;;5.32;;
66169;SDS011;66757;44.024;20.456;2023-05-19T01:01:06;6.05;;;5.45;;
66169;SDS011;66757;44.024;20.456;2023-05-19T01:03:32;8.10;;;6.30;;
66169;SDS011;66757;44.024;20.456;2023-05-19T01:05:59;7.28;;;6.00;;
66169;SDS011;66757;44.024;20.456;2023-05-19T01:08:32;6.32;;;5.53;;
66169;SDS011;66757;44.024;20.456;2023-05-19T01:10:58;6.88;;;5.20;;
66169;SDS011;66757;44.024;20.456;2023-05-19T01:13:24;5.82;;;5.30;;
66169;SDS011;66757;44.024;20.456;2023-05-19T01:18:24;6.63;;;5.93;;
66169;SDS011;66757;44.024;20.456;2023-05-19T01:21:35;6.35;;;5.75;;
66169;SDS011;66757;44.024;20.456;2023-05-19T01:27:05;7.90;;;5.88;;
66169;SDS011;66757;44.024;20.456;2023-05-19T01:32:31;7.05;;;5.93;;
66169;SDS011;66757;44.024;20.456;2023-05-19T01:34:58;5.97;;;5.38;;
66169;SDS011;66757;44.024;20.456;2023-05-19T01:37:25;7.28;;;5.88;;
66169;SDS011;66757;44.024;20.456;2023-05-19T01:39:51;9.40;;;5.85;;
66169;SDS011;66757;44.024;20.456;2023-05-19T01:42:17;7.18;;;5.70;;
66169;SDS011;66757;44.024;20.456;2023-05-19T01:44:44;9.63;;;6.03;;
66169;SDS011;66757;44.024;20.456;2023-05-19T01:47:11;7.43;;;6.18;;
66169;SDS011;66757;44.024;20.456;2023-05-19T01:49:36;9.10;;;7.57;;
66169;SDS011;66757;44.024;20.456;2023-05-19T01:52:02;9.55;;;6.28;;
66169;SDS011;66757;44.024;20.456;2023-05-19T01:54:27;7.05;;;6.07;;
66169;SDS011;66757;44.024;20.456;2023-05-19T01:57:03;8.88;;;6.45;;
66169;SDS011;66757;44.024;20.456;2023-05-19T01:59:44;9.57;;;7.00;;
66169;SDS011;66757;44.024;20.456;2023-05-19T02:02:47;8.15;;;6.28;;
66169;SDS011;66757;44.024;20.456;2023-05-19T02:05:08;7.65;;;6.68;;
66169;SDS011;66757;44.024;20.456;2023-05-19T02:07:47;7.57;;;6.72;;
66169;SDS011;66757;44.024;20.456;2023-05-19T02:10:21;8.55;;;6.72;;
66169;SDS011;66757;44.024;20.456;2023-05-19T02:12:52;11.25;;;7.15;;
66169;SDS011;66757;44.024;20.456;2023-05-19T02:15:21;7.53;;;6.68;;
66169;SDS011;66757;44.024;20.456;2023-05-19T02:17:50;11.95;;;8.25;;
66169;SDS011;66757;44.024;20.456;2023-05-19T02:20:19;8.65;;;7.53;;
66169;SDS011;66757;44.024;20.456;2023-05-19T02:25:40;7.97;;;6.05;;
66169;SDS011;66757;44.024;20.456;2023-05-19T02:28:06;8.00;;;7.20;;
66169;SDS011;66757;44.024;20.456;2023-05-19T02:30:31;9.00;;;7.15;;
66169;SDS011;66757;44.024;20.456;2023-05-19T02:32:57;9.75;;;6.72;;
66169;SDS011;66757;44.024;20.456;2023-05-19T02:35:23;10.75;;;6.68;;
66169;SDS011;66757;44.024;20.456;2023-05-19T02:37:48;10.68;;;7.25;;
66169;SDS011;66757;44.024;20.456;2023-05-19T02:40:14;8.75;;;6.75;;
66169;SDS011;66757;44.024;20.456;2023-05-19T02:42:39;9.75;;;7.03;;
66169;SDS011;66757;44.024;20.456;2023-05-19T02:45:05;9.02;;;6.97;;
66169;SDS011;66757;44.024;20.456;2023-05-19T02:47:31;17.52;;;8.18;;
66169;SDS011;66757;44.024;20.456;2023-05-19T02:49:56;9.77;;;7.05;;
66169;SDS011;66757;44.024;20.456;2023-05-19T02:52:22;7.40;;;5.97;;
66169;SDS011;66757;44.024;20.456;2023-05-19T02:54:47;7.47;;;5.63;;
66169;SDS011;66757;44.024;20.456;2023-05-19T02:57:12;10.98;;;6.82;;
66169;SDS011;66757;44.024;20.456;2023-05-19T02:59:38;11.60;;;8.32;;
66169;SDS011;66757;44.024;20.456;2023-05-19T03:02:03;23.65;;;12.55;;
66169;SDS011;66757;44.024;20.456;2023-05-19T03:04:29;17.73;;;10.20;;
66169;SDS011;66757;44.024;20.456;2023-05-19T03:06:54;14.63;;;9.77;;
66169;SDS011;66757;44.024;20.456;2023-05-19T03:09:21;12.27;;;7.72;;
66169;SDS011;66757;44.024;20.456;2023-05-19T03:11:46;10.05;;;7.25;;
66169;SDS011;66757;44.024;20.456;2023-05-19T03:14:12;10.43;;;7.72;;
66169;SDS011;66757;44.024;20.456;2023-05-19T03:16:40;10.55;;;7.72;;
66169;SDS011;66757;44.024;20.456;2023-05-19T03:19:06;11.20;;;7.03;;
66169;SDS011;66757;44.024;20.456;2023-05-19T03:21:32;10.13;;;7.28;;
66169;SDS011;66757;44.024;20.456;2023-05-19T03:23:58;11.55;;;7.82;;
66169;SDS011;66757;44.024;20.456;2023-05-19T03:26:25;13.35;;;9.10;;
66169;SDS011;66757;44.024;20.456;2023-05-19T03:28:50;13.95;;;9.32;;
66169;SDS011;66757;44.024;20.456;2023-05-19T03:31:16;13.65;;;8.13;;
66169;SDS011;66757;44.024;20.456;2023-05-19T03:33:42;10.77;;;7.93;;
66169;SDS011;66757;44.024;20.456;2023-05-19T03:36:07;10.57;;;7.03;;
66169;SDS011;66757;44.024;20.456;2023-05-19T03:38:33;12.80;;;7.10;;
66169;SDS011;66757;44.024;20.456;2023-05-19T03:40:58;11.73;;;7.65;;
66169;SDS011;66757;44.024;20.456;2023-05-19T03:43:23;11.80;;;7.13;;
66169;SDS011;66757;44.024;20.456;2023-05-19T03:45:49;9.50;;;6.85;;
66169;SDS011;66757;44.024;20.456;2023-05-19T03:48:15;10.77;;;7.70;;
66169;SDS011;66757;44.024;20.456;2023-05-19T03:50:40;9.52;;;7.28;;
66169;SDS011;66757;44.024;20.456;2023-05-19T03:53:06;11.63;;;7.95;;
66169;SDS011;66757;44.024;20.456;2023-05-19T03:55:32;12.25;;;8.27;;
66169;SDS011;66757;44.024;20.456;2023-05-19T03:57:57;10.63;;;8.32;;
66169;SDS011;66757;44.024;20.456;2023-05-19T04:00:23;8.20;;;6.93;;
66169;SDS011;66757;44.024;20.456;2023-05-19T04:02:49;9.25;;;7.13;;
66169;SDS011;66757;44.024;20.456;2023-05-19T04:05:15;10.77;;;6.43;;
66169;SDS011;66757;44.024;20.456;2023-05-19T04:07:40;10.93;;;7.57;;
66169;SDS011;66757;44.024;20.456;2023-05-19T04:10:07;16.17;;;8.18;;
66169;SDS011;66757;44.024;20.456;2023-05-19T04:12:33;9.35;;;7.35;;
66169;SDS011;66757;44.024;20.456;2023-05-19T04:14:59;9.55;;;7.43;;
66169;SDS011;66757;44.024;20.456;2023-05-19T04:17:25;9.75;;;7.45;;
66169;SDS011;66757;44.024;20.456;2023-05-19T04:19:54;13.82;;;8.68;;
66169;SDS011;66757;44.024;20.456;2023-05-19T04:22:20;11.15;;;8.30;;
66169;SDS011;66757;44.024;20.456;2023-05-19T04:24:46;14.18;;;9.80;;
66169;SDS011;66757;44.024;20.456;2023-05-19T04:27:12;14.23;;;8.68;;
66169;SDS011;66757;44.024;20.456;2023-05-19T04:29:39;11.73;;;7.50;;
66169;SDS011;66757;44.024;20.456;2023-05-19T04:32:05;10.43;;;7.53;;
66169;SDS011;66757;44.024;20.456;2023-05-19T04:34:35;13.02;;;8.02;;
66169;SDS011;66757;44.024;20.456;2023-05-19T04:37:04;12.85;;;8.57;;
66169;SDS011;66757;44.024;20.456;2023-05-19T04:39:32;11.43;;;7.63;;
66169;SDS011;66757;44.024;20.456;2023-05-19T04:41:57;12.38;;;7.88;;
66169;SDS011;66757;44.024;20.456;2023-05-19T04:44:24;10.38;;;7.15;;
66169;SDS011;66757;44.024;20.456;2023-05-19T04:46:49;20.80;;;8.95;;
66169;SDS011;66757;44.024;20.456;2023-05-19T04:49:18;15.20;;;8.48;;
66169;SDS011;66757;44.024;20.456;2023-05-19T04:51:44;7.40;;;6.20;;
66169;SDS011;66757;44.024;20.456;2023-05-19T04:54:10;12.52;;;7.45;;
66169;SDS011;66757;44.024;20.456;2023-05-19T04:56:35;9.98;;;7.22;;
66169;SDS011;66757;44.024;20.456;2023-05-19T04:59:01;9.73;;;7.05;;
66169;SDS011;66757;44.024;20.456;2023-05-19T05:01:26;9.75;;;6.53;;
66169;SDS011;66757;44.024;20.456;2023-05-19T05:03:53;11.77;;;7.68;;
66169;SDS011;66757;44.024;20.456;2023-05-19T05:06:19;12.18;;;7.90;;
66169;SDS011;66757;44.024;20.456;2023-05-19T05:08:46;10.15;;;8.32;;
66169;SDS011;66757;44.024;20.456;2023-05-19T05:11:12;10.80;;;8.07;;
66169;SDS011;66757;44.024;20.456;2023-05-19T05:13:39;14.77;;;8.13;;
66169;SDS011;66757;44.024;20.456;2023-05-19T05:16:06;31.13;;;17.90;;
66169;SDS011;66757;44.024;20.456;2023-05-19T05:18:33;15.18;;;10.73;;
66169;SDS011;66757;44.024;20.456;2023-05-19T05:20:59;23.73;;;8.93;;
66169;SDS011;66757;44.024;20.456;2023-05-19T05:23:25;16.63;;;7.50;;
66169;SDS011;66757;44.024;20.456;2023-05-19T05:25:50;13.73;;;7.55;;
66169;SDS011;66757;44.024;20.456;2023-05-19T05:28:16;14.02;;;8.00;;
66169;SDS011;66757;44.024;20.456;2023-05-19T05:30:41;14.35;;;8.10;;
66169;SDS011;66757;44.024;20.456;2023-05-19T05:33:07;14.98;;;8.05;;
66169;SDS011;66757;44.024;20.456;2023-05-19T05:35:33;11.95;;;7.25;;
66169;SDS011;66757;44.024;20.456;2023-05-19T05:37:59;22.90;;;9.48;;
66169;SDS011;66757;44.024;20.456;2023-05-19T05:40:25;21.85;;;9.45;;
66169;SDS011;66757;44.024;20.456;2023-05-19T05:42:51;16.20;;;7.93;;
66169;SDS011;66757;44.024;20.456;2023-05-19T05:45:20;13.43;;;8.05;;
66169;SDS011;66757;44.024;20.456;2023-05-19T05:47:46;13.95;;;8.50;;
66169;SDS011;66757;44.024;20.456;2023-05-19T05:50:12;20.75;;;8.95;;
66169;SDS011;66757;44.024;20.456;2023-05-19T05:52:38;15.65;;;8.73;;
66169;SDS011;66757;44.024;20.456;2023-05-19T05:55:05;16.63;;;8.25;;
66169;SDS011;66757;44.024;20.456;2023-05-19T05:57:31;17.13;;;8.43;;
66169;SDS011;66757;44.024;20.456;2023-05-19T05:59:59;15.55;;;8.40;;
66169;SDS011;66757;44.024;20.456;2023-05-19T06:02:25;15.23;;;7.63;;
66169;SDS011;66757;44.024;20.456;2023-05-19T06:04:51;15.38;;;7.78;;
66169;SDS011;66757;44.024;20.456;2023-05-19T06:07:18;14.20;;;8.00;;
66169;SDS011;66757;44.024;20.456;2023-05-19T06:09:43;15.77;;;8.05;;
66169;SDS011;66757;44.024;20.456;2023-05-19T06:12:09;14.15;;;8.70;;
66169;SDS011;66757;44.024;20.456;2023-05-19T06:14:35;16.98;;;8.85;;
66169;SDS011;66757;44.024;20.456;2023-05-19T06:17:01;20.75;;;10.73;;
66169;SDS011;66757;44.024;20.456;2023-05-19T06:19:26;17.02;;;8.00;;
66169;SDS011;66757;44.024;20.456;2023-05-19T06:21:53;12.95;;;7.63;;
66169;SDS011;66757;44.024;20.456;2023-05-19T06:24:18;17.05;;;9.13;;
66169;SDS011;66757;44.024;20.456;2023-05-19T06:26:43;12.13;;;7.50;;
66169;SDS011;66757;44.024;20.456;2023-05-19T06:29:09;14.60;;;8.60;;
66169;SDS011;66757;44.024;20.456;2023-05-19T06:31:35;17.50;;;9.55;;
66169;SDS011;66757;44.024;20.456;2023-05-19T06:34:00;18.92;;;9.60;;
66169;SDS011;66757;44.024;20.456;2023-05-19T06:36:26;30.80;;;11.07;;
66169;SDS011;66757;44.024;20.456;2023-05-19T06:38:51;15.13;;;8.80;;
66169;SDS011;66757;44.024;20.456;2023-05-19T06:41:17;12.93;;;7.82;;
66169;SDS011;66757;44.024;20.456;2023-05-19T06:43:42;15.95;;;8.73;;
66169;SDS011;66757;44.024;20.456;2023-05-19T06:46:08;15.00;;;8.82;;
66169;SDS011;66757;44.024;20.456;2023-05-19T06:48:33;15.77;;;7.63;;
66169;SDS011;66757;44.024;20.456;2023-05-19T06:50:58;13.85;;;7.18;;
66169;SDS011;66757;44.024;20.456;2023-05-19T06:53:24;14.35;;;8.52;;
66169;SDS011;66757;44.024;20.456;2023-05-19T06:55:50;14.35;;;8.43;;
66169;SDS011;66757;44.024;20.456;2023-05-19T06:58:16;21.10;;;9.00;;
66169;SDS011;66757;44.024;20.456;2023-05-19T07:00:41;24.17;;;9.23;;
66169;SDS011;66757;44.024;20.456;2023-05-19T07:03:07;17.75;;;9.15;;
66169;SDS011;66757;44.024;20.456;2023-05-19T07:05:33;14.90;;;7.38;;
66169;SDS011;66757;44.024;20.456;2023-05-19T07:07:59;16.15;;;8.80;;
66169;SDS011;66757;44.024;20.456;2023-05-19T07:10:24;14.65;;;8.57;;
66169;SDS011;66757;44.024;20.456;2023-05-19T07:12:49;16.77;;;9.48;;
66169;SDS011;66757;44.024;20.456;2023-05-19T07:15:15;18.17;;;9.45;;
66169;SDS011;66757;44.024;20.456;2023-05-19T07:17:40;16.25;;;8.38;;
66169;SDS011;66757;44.024;20.456;2023-05-19T07:20:06;18.15;;;10.43;;
66169;SDS011;66757;44.024;20.456;2023-05-19T07:22:34;20.73;;;10.60;;
66169;SDS011;66757;44.024;20.456;2023-05-19T07:25:00;20.58;;;12.75;;
66169;SDS011;66757;44.024;20.456;2023-05-19T07:27:25;17.58;;;8.15;;
66169;SDS011;66757;44.024;20.456;2023-05-19T07:29:50;19.02;;;8.80;;
66169;SDS011;66757;44.024;20.456;2023-05-19T07:32:16;21.42;;;9.40;;
66169;SDS011;66757;44.024;20.456;2023-05-19T07:34:41;24.30;;;8.05;;
66169;SDS011;66757;44.024;20.456;2023-05-19T07:37:07;17.50;;;8.45;;
66169;SDS011;66757;44.024;20.456;2023-05-19T07:39:33;24.80;;;8.15;;
66169;SDS011;66757;44.024;20.456;2023-05-19T07:41:59;16.88;;;8.77;;
66169;SDS011;66757;44.024;20.456;2023-05-19T07:44:25;25.17;;;11.85;;
66169;SDS011;66757;44.024;20.456;2023-05-19T07:46:51;18.80;;;8.90;;
66169;SDS011;66757;44.024;20.456;2023-05-19T07:49:18;28.60;;;10.18;;
66169;SDS011;66757;44.024;20.456;2023-05-19T07:51:44;20.17;;;8.48;;
66169;SDS011;66757;44.024;20.456;2023-05-19T07:54:10;21.65;;;10.07;;
66169;SDS011;66757;44.024;20.456;2023-05-19T07:56:35;20.55;;;7.72;;
66169;SDS011;66757;44.024;20.456;2023-05-19T07:59:02;15.77;;;8.00;;
66169;SDS011;66757;44.024;20.456;2023-05-19T08:01:28;16.88;;;7.45;;
66169;SDS011;66757;44.024;20.456;2023-05-19T08:03:54;15.82;;;6.90;;
66169;SDS011;66757;44.024;20.456;2023-05-19T08:06:20;20.70;;;7.90;;
66169;SDS011;66757;44.024;20.456;2023-05-19T08:08:46;16.02;;;6.88;;
66169;SDS011;66757;44.024;20.456;2023-05-19T08:11:11;19.42;;;8.18;;
66169;SDS011;66757;44.024;20.456;2023-05-19T08:13:37;15.68;;;8.00;;
66169;SDS011;66757;44.024;20.456;2023-05-19T08:16:02;15.50;;;7.03;;
66169;SDS011;66757;44.024;20.456;2023-05-19T08:18:29;19.30;;;8.90;;
66169;SDS011;66757;44.024;20.456;2023-05-19T08:20:54;21.30;;;9.10;;
66169;SDS011;66757;44.024;20.456;2023-05-19T08:23:20;17.20;;;8.27;;
66169;SDS011;66757;44.024;20.456;2023-05-19T08:25:46;23.58;;;9.48;;
66169;SDS011;66757;44.024;20.456;2023-05-19T08:28:12;19.02;;;9.95;;
66169;SDS011;66757;44.024;20.456;2023-05-19T08:30:38;24.45;;;10.25;;
66169;SDS011;66757;44.024;20.456;2023-05-19T08:33:03;24.80;;;10.95;;
66169;SDS011;66757;44.024;20.456;2023-05-19T08:35:28;26.70;;;9.60;;
66169;SDS011;66757;44.024;20.456;2023-05-19T08:37:54;18.20;;;8.77;;
66169;SDS011;66757;44.024;20.456;2023-05-19T08:40:21;17.77;;;8.27;;
66169;SDS011;66757;44.024;20.456;2023-05-19T08:42:48;25.20;;;9.82;;
66169;SDS011;66757;44.024;20.456;2023-05-19T08:45:14;30.20;;;10.52;;
66169;SDS011;66757;44.024;20.456;2023-05-19T08:47:39;21.63;;;9.13;;
66169;SDS011;66757;44.024;20.456;2023-05-19T08:50:06;18.77;;;8.70;;
66169;SDS011;66757;44.024;20.456;2023-05-19T08:57:59;22.40;;;9.98;;
66169;SDS011;66757;44.024;20.456;2023-05-19T09:00:26;24.77;;;10.05;;
66169;SDS011;66757;44.024;20.456;2023-05-19T09:02:52;16.77;;;9.23;;
66169;SDS011;66757;44.024;20.456;2023-05-19T09:05:18;37.38;;;11.15;;
66169;SDS011;66757;44.024;20.456;2023-05-19T09:07:45;17.15;;;9.82;;
66169;SDS011;66757;44.024;20.456;2023-05-19T09:10:11;24.30;;;13.82;;
66169;SDS011;66757;44.024;20.456;2023-05-19T09:12:47;20.27;;;9.43;;
66169;SDS011;66757;44.024;20.456;2023-05-19T09:15:17;17.40;;;9.15;;
66169;SDS011;66757;44.024;20.456;2023-05-19T09:17:46;18.42;;;10.40;;
66169;SDS011;66757;44.024;20.456;2023-05-19T09:20:15;21.90;;;10.48;;
66169;SDS011;66757;44.024;20.456;2023-05-19T09:22:42;22.55;;;9.30;;
66169;SDS011;66757;44.024;20.456;2023-05-19T09:25:23;21.77;;;10.45;;
66169;SDS011;66757;44.024;20.456;2023-05-19T09:27:48;19.95;;;10.45;;
66169;SDS011;66757;44.024;20.456;2023-05-19T09:30:17;16.08;;;9.38;;
66169;SDS011;66757;44.024;20.456;2023-05-19T09:32:43;21.77;;;10.23;;
66169;SDS011;66757;44.024;20.456;2023-05-19T09:35:10;18.95;;;10.25;;
66169;SDS011;66757;44.024;20.456;2023-05-19T09:37:40;19.38;;;10.40;;
66169;SDS011;66757;44.024;20.456;2023-05-19T09:40:07;19.33;;;10.63;;
66169;SDS011;66757;44.024;20.456;2023-05-19T09:42:35;19.33;;;11.55;;
66169;SDS011;66757;44.024;20.456;2023-05-19T09:45:02;20.65;;;11.02;;
66169;SDS011;66757;44.024;20.456;2023-05-19T09:47:46;17.15;;;11.05;;
66169;SDS011;66757;44.024;20.456;2023-05-19T09:50:12;15.13;;;9.60;;
66169;SDS011;66757;44.024;20.456;2023-05-19T09:52:38;18.65;;;10.63;;
66169;SDS011;66757;44.024;20.456;2023-05-19T09:55:10;18.10;;;11.07;;
66169;SDS011;66757;44.024;20.456;2023-05-19T09:57:37;16.25;;;11.10;;
66169;SDS011;66757;44.024;20.456;2023-05-19T10:00:04;17.52;;;11.07;;
66169;SDS011;66757;44.024;20.456;2023-05-19T10:02:49;15.90;;;10.10;;
66169;SDS011;66757;44.024;20.456;2023-05-19T10:05:16;14.82;;;9.50;;
66169;SDS011;66757;44.024;20.456;2023-05-19T10:07:53;13.45;;;9.05;;
66169;SDS011;66757;44.024;20.456;2023-05-19T10:10:19;14.07;;;10.10;;
66169;SDS011;66757;44.024;20.456;2023-05-19T10:12:49;13.18;;;9.05;;
66169;SDS011;66757;44.024;20.456;2023-05-19T10:15:15;14.98;;;9.68;;
66169;SDS011;66757;44.024;20.456;2023-05-19T10:17:42;12.40;;;9.05;;
66169;SDS011;66757;44.024;20.456;2023-05-19T10:20:10;13.00;;;8.85;;
66169;SDS011;66757;44.024;20.456;2023-05-19T10:22:41;13.45;;;11.07;;
66169;SDS011;66757;44.024;20.456;2023-05-19T10:25:08;13.05;;;10.73;;
66169;SDS011;66757;44.024;20.456;2023-05-19T10:27:35;11.25;;;9.80;;
66169;SDS011;66757;44.024;20.456;2023-05-19T10:30:06;12.77;;;8.20;;
66169;SDS011;66757;44.024;20.456;2023-05-19T10:32:36;16.38;;;11.48;;
66169;SDS011;66757;44.024;20.456;2023-05-19T10:38:09;12.38;;;9.73;;
66169;SDS011;66757;44.024;20.456;2023-05-19T10:40:40;11.00;;;9.82;;
66169;SDS011;66757;44.024;20.456;2023-05-19T10:46:26;14.40;;;10.10;;
66169;SDS011;66757;44.024;20.456;2023-05-19T10:48:53;15.18;;;10.77;;
66169;SDS011;66757;44.024;20.456;2023-05-19T10:51:19;17.85;;;10.98;;
66169;SDS011;66757;44.024;20.456;2023-05-19T10:53:45;12.60;;;10.48;;
66169;SDS011;66757;44.024;20.456;2023-05-19T10:56:11;13.95;;;9.70;;
66169;SDS011;66757;44.024;20.456;2023-05-19T10:58:53;12.93;;;10.35;;
66169;SDS011;66757;44.024;20.456;2023-05-19T11:01:18;15.77;;;12.05;;
66169;SDS011;66757;44.024;20.456;2023-05-19T11:03:46;14.70;;;11.13;;
66169;SDS011;66757;44.024;20.456;2023-05-19T11:08:52;15.93;;;11.68;;
66169;SDS011;66757;44.024;20.456;2023-05-19T11:11:19;20.15;;;13.05;;
66169;SDS011;66757;44.024;20.456;2023-05-19T11:13:52;15.07;;;10.57;;
66169;SDS011;66757;44.024;20.456;2023-05-19T11:16:27;17.23;;;11.95;;
66169;SDS011;66757;44.024;20.456;2023-05-19T11:18:55;20.57;;;14.77;;
66169;SDS011;66757;44.024;20.456;2023-05-19T11:21:23;21.42;;;13.70;;
66169;SDS011;66757;44.024;20.456;2023-05-19T11:23:49;15.73;;;12.90;;
66169;SDS011;66757;44.024;20.456;2023-05-19T11:26:15;13.73;;;11.13;;
66169;SDS011;66757;44.024;20.456;2023-05-19T11:29:04;17.88;;;11.80;;
66169;SDS011;66757;44.024;20.456;2023-05-19T11:31:30;15.68;;;12.00;;
66169;SDS011;66757;44.024;20.456;2023-05-19T11:33:56;18.58;;;12.55;;
66169;SDS011;66757;44.024;20.456;2023-05-19T11:36:22;15.40;;;11.85;;
66169;SDS011;66757;44.024;20.456;2023-05-19T11:38:48;14.38;;;11.43;;
66169;SDS011;66757;44.024;20.456;2023-05-19T11:41:15;11.65;;;10.30;;
66169;SDS011;66757;44.024;20.456;2023-05-19T11:43:41;15.30;;;11.48;;
66169;SDS011;66757;44.024;20.456;2023-05-19T11:46:07;13.55;;;11.13;;
66169;SDS011;66757;44.024;20.456;2023-05-19T11:48:34;12.98;;;10.82;;
66169;SDS011;66757;44.024;20.456;2023-05-19T11:50:59;13.90;;;12.38;;
66169;SDS011;66757;44.024;20.456;2023-05-19T11:53:25;15.57;;;11.60;;
66169;SDS011;66757;44.024;20.456;2023-05-19T11:55:55;12.68;;;11.35;;
66169;SDS011;66757;44.024;20.456;2023-05-19T11:58:27;11.38;;;9.93;;
66169;SDS011;66757;44.024;20.456;2023-05-19T12:00:53;12.75;;;9.48;;
66169;SDS011;66757;44.024;20.456;2023-05-19T12:03:20;13.90;;;9.95;;
66169;SDS011;66757;44.024;20.456;2023-05-19T12:05:46;14.73;;;10.77;;
66169;SDS011;66757;44.024;20.456;2023-05-19T12:08:12;13.73;;;10.85;;
66169;SDS011;66757;44.024;20.456;2023-05-19T12:10:39;14.10;;;10.93;;
66169;SDS011;66757;44.024;20.456;2023-05-19T12:13:05;12.38;;;11.18;;
66169;SDS011;66757;44.024;20.456;2023-05-19T12:15:33;12.90;;;9.88;;
66169;SDS011;66757;44.024;20.456;2023-05-19T12:18:00;11.55;;;10.38;;
66169;SDS011;66757;44.024;20.456;2023-05-19T12:20:27;11.63;;;9.82;;
66169;SDS011;66757;44.024;20.456;2023-05-19T12:22:56;10.98;;;9.90;;
66169;SDS011;66757;44.024;20.456;2023-05-19T12:25:22;13.85;;;10.32;;
66169;SDS011;66757;44.024;20.456;2023-05-19T12:27:48;13.13;;;10.00;;
66169;SDS011;66757;44.024;20.456;2023-05-19T12:30:14;12.48;;;10.77;;
66169;SDS011;66757;44.024;20.456;2023-05-19T12:32:40;15.15;;;10.70;;
66169;SDS011;66757;44.024;20.456;2023-05-19T12:35:07;14.32;;;11.43;;
66169;SDS011;66757;44.024;20.456;2023-05-19T12:37:33;11.63;;;9.90;;
66169;SDS011;66757;44.024;20.456;2023-05-19T12:40:01;11.65;;;9.65;;
66169;SDS011;66757;44.024;20.456;2023-05-19T12:42:30;16.60;;;13.48;;
66169;SDS011;66757;44.024;20.456;2023-05-19T12:44:56;12.20;;;9.48;;
66169;SDS011;66757;44.024;20.456;2023-05-19T12:47:28;13.55;;;11.82;;
66169;SDS011;66757;44.024;20.456;2023-05-19T12:52:26;10.43;;;9.25;;
66169;SDS011;66757;44.024;20.456;2023-05-19T12:57:29;13.10;;;10.07;;
66169;SDS011;66757;44.024;20.456;2023-05-19T13:00:03;11.85;;;10.02;;
66169;SDS011;66757;44.024;20.456;2023-05-19T13:02:34;12.02;;;10.18;;
66169;SDS011;66757;44.024;20.456;2023-05-19T13:05:01;10.80;;;9.73;;
66169;SDS011;66757;44.024;20.456;2023-05-19T13:07:28;22.90;;;10.93;;
66169;SDS011;66757;44.024;20.456;2023-05-19T13:09:54;16.35;;;12.15;;
66169;SDS011;66757;44.024;20.456;2023-05-19T13:12:20;18.13;;;11.70;;
66169;SDS011;66757;44.024;20.456;2023-05-19T13:14:46;15.35;;;11.35;;
66169;SDS011;66757;44.024;20.456;2023-05-19T13:17:11;14.20;;;11.73;;
66169;SDS011;66757;44.024;20.456;2023-05-19T13:19:36;17.17;;;12.07;;
66169;SDS011;66757;44.024;20.456;2023-05-19T13:22:02;15.02;;;12.18;;
66169;SDS011;66757;44.024;20.456;2023-05-19T13:24:28;16.55;;;13.98;;
66169;SDS011;66757;44.024;20.456;2023-05-19T13:26:53;15.75;;;12.88;;
66169;SDS011;66757;44.024;20.456;2023-05-19T13:29:19;17.17;;;13.18;;
66169;SDS011;66757;44.024;20.456;2023-05-19T13:31:44;20.85;;;13.60;;
66169;SDS011;66757;44.024;20.456;2023-05-19T13:34:10;20.17;;;13.77;;
66169;SDS011;66757;44.024;20.456;2023-05-19T13:36:35;18.08;;;12.75;;
66169;SDS011;66757;44.024;20.456;2023-05-19T13:39:01;16.92;;;12.70;;
66169;SDS011;66757;44.024;20.456;2023-05-19T13:41:26;15.75;;;11.93;;
66169;SDS011;66757;44.024;20.456;2023-05-19T13:43:53;18.98;;;13.23;;
66169;SDS011;66757;44.024;20.456;2023-05-19T13:46:20;15.57;;;11.85;;
66169;SDS011;66757;44.024;20.456;2023-05-19T13:48:46;23.05;;;15.07;;
66169;SDS011;66757;44.024;20.456;2023-05-19T13:51:11;21.88;;;13.85;;
66169;SDS011;66757;44.024;20.456;2023-05-19T13:53:37;15.32;;;13.00;;
66169;SDS011;66757;44.024;20.456;2023-05-19T13:56:03;15.85;;;13.75;;
66169;SDS011;66757;44.024;20.456;2023-05-19T13:58:29;17.10;;;12.68;;
66169;SDS011;66757;44.024;20.456;2023-05-19T14:00:54;16.38;;;12.48;;
66169;SDS011;66757;44.024;20.456;2023-05-19T14:03:21;18.65;;;13.18;;
66169;SDS011;66757;44.024;20.456;2023-05-19T14:05:47;17.90;;;12.90;;
66169;SDS011;66757;44.024;20.456;2023-05-19T14:08:13;15.23;;;12.27;;
66169;SDS011;66757;44.024;20.456;2023-05-19T14:10:38;18.30;;;13.30;;
66169;SDS011;66757;44.024;20.456;2023-05-19T14:13:04;17.65;;;13.82;;
66169;SDS011;66757;44.024;20.456;2023-05-19T14:15:29;16.75;;;12.50;;
66169;SDS011;66757;44.024;20.456;2023-05-19T14:17:59;19.35;;;13.63;;
66169;SDS011;66757;44.024;20.456;2023-05-19T14:20:24;20.52;;;13.35;;
66169;SDS011;66757;44.024;20.456;2023-05-19T14:22:51;18.20;;;11.25;;
66169;SDS011;66757;44.024;20.456;2023-05-19T14:25:16;17.15;;;12.95;;
66169;SDS011;66757;44.024;20.456;2023-05-19T14:27:42;14.60;;;12.93;;
66169;SDS011;66757;44.024;20.456;2023-05-19T14:30:07;21.13;;;13.75;;
66169;SDS011;66757;44.024;20.456;2023-05-19T14:32:33;18.73;;;13.93;;
66169;SDS011;66757;44.024;20.456;2023-05-19T14:34:59;17.75;;;13.52;;
66169;SDS011;66757;44.024;20.456;2023-05-19T14:37:24;15.10;;;12.13;;
66169;SDS011;66757;44.024;20.456;2023-05-19T14:39:53;15.93;;;13.23;;
66169;SDS011;66757;44.024;20.456;2023-05-19T14:42:18;16.05;;;13.57;;
66169;SDS011;66757;44.024;20.456;2023-05-19T14:44:44;13.40;;;11.80;;
66169;SDS011;66757;44.024;20.456;2023-05-19T14:47:09;15.20;;;13.02;;